»·PEaware :: N303PW KLAX-KSAN

N303PW :: KLAX-KSAN

FLIGHT INFORMATION

Flight Status: Arrived
Operator: Privately registered:
United States
More flights under this callsign
Pilot: Paul W. (27512)
Aircraft: CESSNA 172 SKYHAWK
(C172)
More flights by this aircraft type
Origin: KLAX Los Angeles Intl
United States
Destination: KSAN San Diego Intl-Lindbergh
United States
More flights between these airports :: More routes between these airports
Route: KLAX KSAN
File this flight plan on PilotEdge
Remarks:
Altitude:
(Current/Filed)
3,500ft
Speed:
(Current/Filed)
140kts
Departed: 06-Feb-20 09:22 PM
Arrived: 06-Feb-20 10:37 PM
Distance/Time
Traveled:
95nm/1:15
Distance/Time
To Go:
Arrived

Flight Plot

Page will automatically refresh every two minutes.


Map Options




Map Legend


Flown Route
Filed Route
Departure Airport
Arrival Airport
Navaid (VOR, NDB)
Fix

Horizontal Profiles

Position Reports

Time Latitude Longitude Heading Altitude Ground
Speed
06-Feb-20 20:57 33.941598 -118.382534 83 96ft 0kts
06-Feb-20 20:58 33.941598 -118.382534 83 96ft 0kts
06-Feb-20 20:59 33.941598 -118.382534 83 96ft 0kts
06-Feb-20 21:00 33.941598 -118.382534 83 96ft 0kts
06-Feb-20 21:01 33.941598 -118.382534 83 96ft 0kts
06-Feb-20 21:02 33.941598 -118.382534 83 96ft 0kts
06-Feb-20 21:03 33.941598 -118.382534 83 96ft 0kts
06-Feb-20 21:03 33.941598 -118.382534 83 96ft 0kts
06-Feb-20 21:04 33.941598 -118.382534 83 96ft 0kts
06-Feb-20 21:06 33.941598 -118.382534 83 96ft 0kts
06-Feb-20 21:06 33.941598 -118.382534 83 96ft 0kts
06-Feb-20 21:07 33.941598 -118.382534 83 96ft 0kts
06-Feb-20 21:09 33.941598 -118.382534 83 96ft 0kts
06-Feb-20 21:09 33.941598 -118.382534 83 96ft 0kts
06-Feb-20 21:10 33.941598 -118.382534 83 96ft 0kts
06-Feb-20 21:11 33.941598 -118.382534 83 96ft 0kts
06-Feb-20 21:12 33.941598 -118.382534 83 96ft 0kts
06-Feb-20 21:13 33.941598 -118.382534 83 96ft 0kts
06-Feb-20 21:14 33.941598 -118.382534 83 96ft 0kts
06-Feb-20 21:15 33.941598 -118.382534 83 96ft 0kts
06-Feb-20 21:16 33.941318 -118.382266 152 96ft 1kts
06-Feb-20 21:17 33.941438 -118.380503 87 96ft 9kts
06-Feb-20 21:18 33.940752 -118.380065 171 96ft 0kts
06-Feb-20 21:19 33.940752 -118.380065 171 96ft 0kts
06-Feb-20 21:20 33.940752 -118.380065 171 96ft 0kts
06-Feb-20 21:21 33.939586 -118.382227 264 96ft 58kts
06-Feb-20 21:22 33.938512 -118.393442 261 440ft 82kts
06-Feb-20 21:23 33.937874 -118.405674 265 999ft 73kts
06-Feb-20 21:24 33.935480 -118.419837 256 1577ft 76kts
06-Feb-20 21:25 33.928759 -118.429683 179 2148ft 76kts
06-Feb-20 21:26 33.916343 -118.428278 173 2693ft 80kts
06-Feb-20 21:27 33.900255 -118.426109 173 2826ft 119kts
06-Feb-20 21:28 33.881118 -118.423585 170 3188ft 115kts
06-Feb-20 21:29 33.861030 -118.420231 173 3259ft 126kts
06-Feb-20 21:30 33.836402 -118.416828 167 3421ft 124kts
06-Feb-20 21:31 33.817952 -118.401653 138 3360ft 133kts
06-Feb-20 21:32 33.801460 -118.383434 137 3320ft 134kts
06-Feb-20 21:33 33.784964 -118.365148 136 3318ft 133kts
06-Feb-20 21:34 33.767800 -118.345763 136 3318ft 133kts
06-Feb-20 21:35 33.750589 -118.326297 136 3318ft 133kts
06-Feb-20 21:36 33.730916 -118.304052 136 3318ft 133kts
06-Feb-20 21:37 33.712685 -118.283449 136 3318ft 133kts
06-Feb-20 21:38 33.693976 -118.262319 136 3318ft 133kts
06-Feb-20 21:39 33.673908 -118.239667 136 3318ft 133kts
06-Feb-20 21:40 33.655869 -118.219319 136 3318ft 133kts
06-Feb-20 21:41 33.638262 -118.199470 136 3320ft 133kts
06-Feb-20 21:42 33.620991 -118.180011 136 3318ft 133kts
06-Feb-20 21:43 33.601967 -118.158428 134 3318ft 133kts
06-Feb-20 21:44 33.582328 -118.134889 135 3318ft 133kts
06-Feb-20 21:45 33.562250 -118.111836 136 3318ft 133kts
06-Feb-20 21:46 33.542053 -118.088995 136 3319ft 133kts
06-Feb-20 21:47 33.521848 -118.066261 136 3338ft 133kts
06-Feb-20 21:48 33.501574 -118.043498 136 3338ft 133kts
06-Feb-20 21:49 33.481238 -118.020688 136 3338ft 133kts
06-Feb-20 21:50 33.460895 -117.997889 136 3338ft 133kts
06-Feb-20 21:51 33.440479 -117.975024 136 3338ft 133kts
06-Feb-20 21:52 33.420104 -117.952220 136 3338ft 133kts
06-Feb-20 21:53 33.399747 -117.929452 136 3338ft 133kts
06-Feb-20 21:54 33.378468 -117.908509 142 3467ft 124kts
06-Feb-20 21:55 33.354812 -117.891324 149 3353ft 135kts
06-Feb-20 21:56 33.330205 -117.875826 142 3351ft 133kts
06-Feb-20 21:57 33.309748 -117.853113 136 3352ft 133kts
06-Feb-20 21:58 33.289630 -117.829961 135 3352ft 133kts
06-Feb-20 21:59 33.269721 -117.806608 135 3352ft 133kts
06-Feb-20 22:00 33.249758 -117.783272 135 3352ft 133kts
06-Feb-20 22:01 33.229734 -117.760068 135 3352ft 133kts
06-Feb-20 22:02 33.209637 -117.736851 135 3352ft 133kts
06-Feb-20 22:03 33.189551 -117.713680 135 3352ft 133kts
06-Feb-20 22:04 33.169457 -117.690520 135 3352ft 133kts
06-Feb-20 22:05 33.149448 -117.667474 135 3352ft 133kts
06-Feb-20 22:06 33.129366 -117.644362 135 3352ft 133kts
06-Feb-20 22:07 33.109280 -117.621260 135 3352ft 133kts
06-Feb-20 22:08 33.089193 -117.598162 135 3352ft 133kts
06-Feb-20 22:09 33.069275 -117.574861 135 3352ft 133kts
06-Feb-20 22:10 33.049269 -117.551671 135 3352ft 133kts
06-Feb-20 22:11 33.035705 -117.527532 105 3352ft 133kts
06-Feb-20 22:12 33.033863 -117.501223 86 3352ft 133kts
06-Feb-20 22:13 33.035067 -117.474617 86 3352ft 133kts
06-Feb-20 22:14 33.034648 -117.448341 116 3344ft 133kts
06-Feb-20 22:15 33.013598 -117.428635 145 3352ft 133kts
06-Feb-20 22:16 32.990604 -117.410209 145 3352ft 133kts
06-Feb-20 22:17 32.968575 -117.392583 144 3352ft 133kts
06-Feb-20 22:18 32.954217 -117.371560 117 3352ft 133kts
06-Feb-20 22:19 32.948769 -117.346561 98 3352ft 133kts
06-Feb-20 22:20 32.945487 -117.320375 99 3352ft 133kts
06-Feb-20 22:21 32.930162 -117.301614 157 3352ft 133kts
06-Feb-20 22:22 32.904910 -117.290209 160 3352ft 133kts
06-Feb-20 22:23 32.880847 -117.277679 149 3352ft 133kts
06-Feb-20 22:24 32.859815 -117.262751 149 3352ft 133kts
06-Feb-20 22:25 32.836842 -117.246481 149 3345ft 117kts
06-Feb-20 22:26 32.817455 -117.233084 149 2381ft 111kts
06-Feb-20 22:27 32.797888 -117.219311 149 1288ft 112kts
06-Feb-20 22:28 32.782600 -117.208493 149 1290ft 81kts
06-Feb-20 22:29 32.765450 -117.198309 163 1291ft 104kts
06-Feb-20 22:30 32.749536 -117.187707 109 1284ft 88kts
06-Feb-20 22:31 32.745870 -117.171172 107 1205ft 84kts
06-Feb-20 22:32 32.741516 -117.154821 124 853ft 86kts
06-Feb-20 22:33 32.728237 -117.161645 253 434ft 70kts
06-Feb-20 22:34 32.729994 -117.175665 290 172ft 63kts
06-Feb-20 22:35 32.732627 -117.185838 284 16ft 47kts
06-Feb-20 22:36 32.732086 -117.188083 120 14ft 15kts
06-Feb-20 22:37 32.731650 -117.185989 107 14ft 23kts

Navigation Log

Ident Type
Flight plan parsing failed, navigation log unavailable